sensor_id;sensor_type;location;lat;lon;timestamp;pressure;altitude;pressure_sealevel;temperature;humidity
46223;BME280;31943;51.410;7.564;2023-05-03T00:01:00;101467.25;;;6.28;58.49
46223;BME280;31943;51.410;7.564;2023-05-03T00:03:26;101470.59;;;6.26;57.93
46223;BME280;31943;51.410;7.564;2023-05-03T00:05:52;101466.88;;;6.21;58.24
46223;BME280;31943;51.410;7.564;2023-05-03T00:08:18;101467.63;;;6.18;58.49
46223;BME280;31943;51.410;7.564;2023-05-03T00:10:45;101458.75;;;6.13;58.29
46223;BME280;31943;51.410;7.564;2023-05-03T00:13:10;101469.03;;;6.11;58.33
46223;BME280;31943;51.410;7.564;2023-05-03T00:15:36;101474.09;;;6.08;58.48
46223;BME280;31943;51.410;7.564;2023-05-03T00:18:01;101476.59;;;6.07;58.62
46223;BME280;31943;51.410;7.564;2023-05-03T00:20:27;101471.34;;;6.05;58.70
46223;BME280;31943;51.410;7.564;2023-05-03T00:22:52;101465.19;;;6.03;58.81
46223;BME280;31943;51.410;7.564;2023-05-03T00:25:18;101465.88;;;5.99;58.86
46223;BME280;31943;51.410;7.564;2023-05-03T00:27:45;101463.19;;;5.98;58.91
46223;BME280;31943;51.410;7.564;2023-05-03T00:30:12;101461.34;;;5.95;59.05
46223;BME280;31943;51.410;7.564;2023-05-03T00:32:39;101458.66;;;5.93;58.76
46223;BME280;31943;51.410;7.564;2023-05-03T00:35:05;101455.00;;;5.90;58.69
46223;BME280;31943;51.410;7.564;2023-05-03T00:37:31;101452.13;;;5.84;58.58
46223;BME280;31943;51.410;7.564;2023-05-03T00:39:58;101452.00;;;5.81;58.74
46223;BME280;31943;51.410;7.564;2023-05-03T00:42:24;101453.47;;;5.75;58.99
46223;BME280;31943;51.410;7.564;2023-05-03T00:44:51;101458.66;;;5.75;58.69
46223;BME280;31943;51.410;7.564;2023-05-03T00:47:17;101467.16;;;5.73;58.94
46223;BME280;31943;51.410;7.564;2023-05-03T00:49:42;101458.44;;;5.71;59.03
46223;BME280;31943;51.410;7.564;2023-05-03T00:52:08;101461.91;;;5.71;59.04
46223;BME280;31943;51.410;7.564;2023-05-03T00:54:34;101452.28;;;5.69;59.05
46223;BME280;31943;51.410;7.564;2023-05-03T00:57:00;101450.41;;;5.66;59.50
46223;BME280;31943;51.410;7.564;2023-05-03T00:59:27;101453.09;;;5.68;59.36
46223;BME280;31943;51.410;7.564;2023-05-03T01:01:54;101456.56;;;5.68;59.29
46223;BME280;31943;51.410;7.564;2023-05-03T01:04:20;101463.53;;;5.69;59.19
46223;BME280;31943;51.410;7.564;2023-05-03T01:06:51;101465.25;;;5.69;59.63
46223;BME280;31943;51.410;7.564;2023-05-03T01:09:24;101473.69;;;5.65;59.12
46223;BME280;31943;51.410;7.564;2023-05-03T01:11:59;101470.16;;;5.64;59.24
46223;BME280;31943;51.410;7.564;2023-05-03T01:14:34;101477.16;;;5.65;59.33
46223;BME280;31943;51.410;7.564;2023-05-03T01:17:07;101477.81;;;5.61;59.16
46223;BME280;31943;51.410;7.564;2023-05-03T01:19:37;101481.94;;;5.58;59.31
46223;BME280;31943;51.410;7.564;2023-05-03T01:22:09;101484.44;;;5.56;59.28
46223;BME280;31943;51.410;7.564;2023-05-03T01:24:40;101479.84;;;5.50;59.15
46223;BME280;31943;51.410;7.564;2023-05-03T01:27:07;101484.97;;;5.49;59.23
46223;BME280;31943;51.410;7.564;2023-05-03T01:29:33;101482.31;;;5.47;59.28
46223;BME280;31943;51.410;7.564;2023-05-03T01:31:59;101475.19;;;5.43;59.44
46223;BME280;31943;51.410;7.564;2023-05-03T01:34:31;101480.19;;;5.40;59.35
46223;BME280;31943;51.410;7.564;2023-05-03T01:36:59;101473.88;;;5.35;59.24
46223;BME280;31943;51.410;7.564;2023-05-03T01:39:31;101479.81;;;5.32;59.21
46223;BME280;31943;51.410;7.564;2023-05-03T01:41:58;101482.97;;;5.27;59.20
46223;BME280;31943;51.410;7.564;2023-05-03T01:44:29;101482.25;;;5.29;59.78
46223;BME280;31943;51.410;7.564;2023-05-03T01:46:56;101482.41;;;5.32;59.74
46223;BME280;31943;51.410;7.564;2023-05-03T01:49:21;101484.03;;;5.30;59.57
46223;BME280;31943;51.410;7.564;2023-05-03T01:51:47;101489.06;;;5.27;59.33
46223;BME280;31943;51.410;7.564;2023-05-03T01:54:13;101495.03;;;5.26;59.17
46223;BME280;31943;51.410;7.564;2023-05-03T01:56:38;101494.81;;;5.22;59.01
46223;BME280;31943;51.410;7.564;2023-05-03T01:59:06;101496.25;;;5.17;59.32
46223;BME280;31943;51.410;7.564;2023-05-03T02:01:35;101502.06;;;5.12;59.55
46223;BME280;31943;51.410;7.564;2023-05-03T02:04:01;101505.47;;;5.11;59.66
46223;BME280;31943;51.410;7.564;2023-05-03T02:06:26;101501.03;;;5.09;59.63
46223;BME280;31943;51.410;7.564;2023-05-03T02:08:52;101503.53;;;5.07;59.56
46223;BME280;31943;51.410;7.564;2023-05-03T02:11:18;101509.34;;;5.03;59.52
46223;BME280;31943;51.410;7.564;2023-05-03T02:13:44;101511.84;;;5.02;59.63
46223;BME280;31943;51.410;7.564;2023-05-03T02:16:13;101504.81;;;4.99;59.76
46223;BME280;31943;51.410;7.564;2023-05-03T02:18:40;101506.75;;;5.03;59.87
46223;BME280;31943;51.410;7.564;2023-05-03T02:21:07;101512.84;;;5.04;59.69
46223;BME280;31943;51.410;7.564;2023-05-03T02:23:33;101509.34;;;5.03;59.93
46223;BME280;31943;51.410;7.564;2023-05-03T02:25:58;101506.63;;;5.00;59.70
46223;BME280;31943;51.410;7.564;2023-05-03T02:28:24;101509.13;;;4.99;60.12
46223;BME280;31943;51.410;7.564;2023-05-03T02:30:49;101507.50;;;5.01;59.87
46223;BME280;31943;51.410;7.564;2023-05-03T02:33:15;101516.97;;;5.00;59.85
46223;BME280;31943;51.410;7.564;2023-05-03T02:35:42;101529.00;;;5.00;59.89
46223;BME280;31943;51.410;7.564;2023-05-03T02:38:08;101528.19;;;5.01;59.87
46223;BME280;31943;51.410;7.564;2023-05-03T02:40:33;101525.53;;;4.99;59.68
46223;BME280;31943;51.410;7.564;2023-05-03T02:42:59;101523.66;;;4.97;59.65
46223;BME280;31943;51.410;7.564;2023-05-03T02:45:24;101529.72;;;4.97;59.68
46223;BME280;31943;51.410;7.564;2023-05-03T02:47:50;101524.47;;;4.95;59.76
46223;BME280;31943;51.410;7.564;2023-05-03T02:50:16;101531.25;;;4.93;59.77
46223;BME280;31943;51.410;7.564;2023-05-03T02:52:43;101528.56;;;4.92;59.52
46223;BME280;31943;51.410;7.564;2023-05-03T02:55:09;101525.75;;;4.87;59.62
46223;BME280;31943;51.410;7.564;2023-05-03T02:57:34;101529.88;;;4.84;59.56
46223;BME280;31943;51.410;7.564;2023-05-03T03:00:00;101522.75;;;4.80;59.61
46223;BME280;31943;51.410;7.564;2023-05-03T03:02:26;101528.47;;;4.74;59.52
46223;BME280;31943;51.410;7.564;2023-05-03T03:04:51;101520.50;;;4.69;59.48
46223;BME280;31943;51.410;7.564;2023-05-03T03:07:17;101519.44;;;4.66;59.66
46223;BME280;31943;51.410;7.564;2023-05-03T03:09:44;101520.25;;;4.65;59.76
46223;BME280;31943;51.410;7.564;2023-05-03T03:12:09;101519.09;;;4.60;59.52
46223;BME280;31943;51.410;7.564;2023-05-03T03:14:35;101523.31;;;4.58;59.67
46223;BME280;31943;51.410;7.564;2023-05-03T03:17:01;101518.03;;;4.56;59.84
46223;BME280;31943;51.410;7.564;2023-05-03T03:19:26;101505.84;;;4.53;59.69
46223;BME280;31943;51.410;7.564;2023-05-03T03:21:52;101509.84;;;4.48;59.80
46223;BME280;31943;51.410;7.564;2023-05-03T03:24:17;101504.53;;;4.45;60.01
46223;BME280;31943;51.410;7.564;2023-05-03T03:26:44;101507.03;;;4.44;59.87
46223;BME280;31943;51.410;7.564;2023-05-03T03:29:10;101511.97;;;4.39;59.93
46223;BME280;31943;51.410;7.564;2023-05-03T03:31:36;101510.97;;;4.37;59.86
46223;BME280;31943;51.410;7.564;2023-05-03T03:34:01;101509.28;;;4.38;60.14
46223;BME280;31943;51.410;7.564;2023-05-03T03:36:27;101508.47;;;4.39;59.96
46223;BME280;31943;51.410;7.564;2023-05-03T03:38:52;101507.41;;;4.35;60.04
46223;BME280;31943;51.410;7.564;2023-05-03T03:41:18;101503.94;;;4.34;60.29
46223;BME280;31943;51.410;7.564;2023-05-03T03:43:46;101508.13;;;4.32;60.31
46223;BME280;31943;51.410;7.564;2023-05-03T03:46:11;101505.44;;;4.31;60.45
46223;BME280;31943;51.410;7.564;2023-05-03T03:48:37;101501.00;;;4.28;60.34
46223;BME280;31943;51.410;7.564;2023-05-03T03:51:03;101503.69;;;4.30;60.47
46223;BME280;31943;51.410;7.564;2023-05-03T03:53:28;101503.59;;;4.28;60.19
46223;BME280;31943;51.410;7.564;2023-05-03T03:55:54;101501.09;;;4.30;60.33
46223;BME280;31943;51.410;7.564;2023-05-03T03:58:19;101499.41;;;4.30;60.43
46223;BME280;31943;51.410;7.564;2023-05-03T04:00:47;101495.75;;;4.27;60.43
46223;BME280;31943;51.410;7.564;2023-05-03T04:03:14;101496.66;;;4.27;60.28
46223;BME280;31943;51.410;7.564;2023-05-03T04:05:40;101496.66;;;4.27;60.29
46223;BME280;31943;51.410;7.564;2023-05-03T04:08:05;101496.50;;;4.24;60.32
46223;BME280;31943;51.410;7.564;2023-05-03T04:10:31;101506.00;;;4.25;60.28
46223;BME280;31943;51.410;7.564;2023-05-03T04:12:56;101506.91;;;4.26;60.50
46223;BME280;31943;51.410;7.564;2023-05-03T04:15:22;101493.25;;;4.28;60.53
46223;BME280;31943;51.410;7.564;2023-05-03T04:17:49;101487.63;;;4.35;60.81
46223;BME280;31943;51.410;7.564;2023-05-03T04:20:15;101489.50;;;4.38;60.48
46223;BME280;31943;51.410;7.564;2023-05-03T04:22:41;101494.56;;;4.36;60.42
46223;BME280;31943;51.410;7.564;2023-05-03T04:25:09;101488.34;;;4.33;60.35
46223;BME280;31943;51.410;7.564;2023-05-03T04:27:35;101489.16;;;4.32;60.55
46223;BME280;31943;51.410;7.564;2023-05-03T04:30:01;101484.88;;;4.32;60.24
46223;BME280;31943;51.410;7.564;2023-05-03T04:32:26;101491.75;;;4.32;60.50
46223;BME280;31943;51.410;7.564;2023-05-03T04:34:53;101486.47;;;4.30;60.48
46223;BME280;31943;51.410;7.564;2023-05-03T04:37:21;101477.13;;;4.32;60.54
46223;BME280;31943;51.410;7.564;2023-05-03T04:39:46;101478.00;;;4.33;60.57
46223;BME280;31943;51.410;7.564;2023-05-03T04:42:13;101473.00;;;4.36;60.59
46223;BME280;31943;51.410;7.564;2023-05-03T04:44:38;101473.00;;;4.36;60.89
46223;BME280;31943;51.410;7.564;2023-05-03T04:47:04;101476.56;;;4.38;60.40
46223;BME280;31943;51.410;7.564;2023-05-03T04:49:30;101473.19;;;4.39;60.82
46223;BME280;31943;51.410;7.564;2023-05-03T04:51:58;101477.44;;;4.39;60.79
46223;BME280;31943;51.410;7.564;2023-05-03T04:54:24;101481.91;;;4.41;60.75
46223;BME280;31943;51.410;7.564;2023-05-03T04:56:50;101480.31;;;4.43;60.84
46223;BME280;31943;51.410;7.564;2023-05-03T04:59:15;101484.41;;;4.40;60.80
46223;BME280;31943;51.410;7.564;2023-05-03T05:01:41;101482.38;;;4.34;60.77
46223;BME280;31943;51.410;7.564;2023-05-03T05:04:07;101494.25;;;4.30;60.96
46223;BME280;31943;51.410;7.564;2023-05-03T05:06:32;101494.34;;;4.32;61.01
46223;BME280;31943;51.410;7.564;2023-05-03T05:08:59;101496.91;;;4.32;61.00
46223;BME280;31943;51.410;7.564;2023-05-03T05:11:25;101490.91;;;4.33;61.04
46223;BME280;31943;51.410;7.564;2023-05-03T05:13:51;101508.38;;;4.37;61.09
46223;BME280;31943;51.410;7.564;2023-05-03T05:16:18;101507.69;;;4.40;61.14
46223;BME280;31943;51.410;7.564;2023-05-03T05:18:46;101512.03;;;4.41;61.11
46223;BME280;31943;51.410;7.564;2023-05-03T05:21:12;101505.34;;;4.44;61.34
46223;BME280;31943;51.410;7.564;2023-05-03T05:23:38;101502.09;;;4.48;61.66
46223;BME280;31943;51.410;7.564;2023-05-03T05:26:05;101504.88;;;4.51;61.14
46223;BME280;31943;51.410;7.564;2023-05-03T05:28:31;101519.75;;;4.55;61.39
46223;BME280;31943;51.410;7.564;2023-05-03T05:30:56;101513.75;;;4.56;61.38
46223;BME280;31943;51.410;7.564;2023-05-03T05:33:22;101520.81;;;4.59;61.50
46223;BME280;31943;51.410;7.564;2023-05-03T05:35:47;101519.19;;;4.61;61.50
46223;BME280;31943;51.410;7.564;2023-05-03T05:38:18;101521.13;;;4.65;61.59
46223;BME280;31943;51.410;7.564;2023-05-03T05:40:43;101523.16;;;4.71;61.53
46223;BME280;31943;51.410;7.564;2023-05-03T05:43:10;101517.34;;;4.75;61.64
46223;BME280;31943;51.410;7.564;2023-05-03T05:45:37;101527.06;;;4.79;61.64
46223;BME280;31943;51.410;7.564;2023-05-03T05:48:03;101527.56;;;4.88;61.67
46223;BME280;31943;51.410;7.564;2023-05-03T05:50:29;101531.56;;;5.00;61.79
46223;BME280;31943;51.410;7.564;2023-05-03T05:52:54;101534.75;;;5.10;61.76
46223;BME280;31943;51.410;7.564;2023-05-03T05:55:20;101540.41;;;5.20;61.62
46223;BME280;31943;51.410;7.564;2023-05-03T05:57:46;101539.91;;;5.27;61.64
46223;BME280;31943;51.410;7.564;2023-05-03T06:00:15;101547.19;;;5.34;61.55
46223;BME280;31943;51.410;7.564;2023-05-03T06:02:41;101550.19;;;5.42;61.32
46223;BME280;31943;51.410;7.564;2023-05-03T06:05:07;101554.38;;;5.40;61.47
46223;BME280;31943;51.410;7.564;2023-05-03T06:07:33;101559.06;;;5.30;61.68
46223;BME280;31943;51.410;7.564;2023-05-03T06:09:59;101566.09;;;5.33;61.65
46223;BME280;31943;51.410;7.564;2023-05-03T06:12:25;101558.69;;;5.39;61.51
46223;BME280;31943;51.410;7.564;2023-05-03T06:14:51;101563.88;;;5.39;61.67
46223;BME280;31943;51.410;7.564;2023-05-03T06:17:19;101571.63;;;5.39;61.88
46223;BME280;31943;51.410;7.564;2023-05-03T06:19:45;101561.91;;;5.51;61.90
46223;BME280;31943;51.410;7.564;2023-05-03T06:22:10;101555.97;;;5.70;61.63
46223;BME280;31943;51.410;7.564;2023-05-03T06:24:36;101562.22;;;5.92;61.65
46223;BME280;31943;51.410;7.564;2023-05-03T06:27:02;101557.22;;;6.13;61.10
46223;BME280;31943;51.410;7.564;2023-05-03T06:29:28;101556.28;;;6.29;61.11
46223;BME280;31943;51.410;7.564;2023-05-03T06:31:55;101555.53;;;6.49;60.49
46223;BME280;31943;51.410;7.564;2023-05-03T06:34:24;101568.31;;;6.64;60.04
46223;BME280;31943;51.410;7.564;2023-05-03T06:36:50;101561.56;;;6.68;59.63
46223;BME280;31943;51.410;7.564;2023-05-03T06:39:16;101569.97;;;6.80;59.66
46223;BME280;31943;51.410;7.564;2023-05-03T06:41:44;101566.28;;;6.95;59.48
46223;BME280;31943;51.410;7.564;2023-05-03T06:44:10;101564.31;;;7.08;59.33
46223;BME280;31943;51.410;7.564;2023-05-03T06:46:35;101560.63;;;7.23;58.83
46223;BME280;31943;51.410;7.564;2023-05-03T06:49:01;101555.34;;;7.41;58.61
46223;BME280;31943;51.410;7.564;2023-05-03T06:51:29;101556.22;;;7.61;58.79
46223;BME280;31943;51.410;7.564;2023-05-03T06:53:56;101557.84;;;7.78;58.67
46223;BME280;31943;51.410;7.564;2023-05-03T06:56:22;101555.94;;;7.95;58.22
46223;BME280;31943;51.410;7.564;2023-05-03T06:58:48;101561.69;;;8.09;57.97
46223;BME280;31943;51.410;7.564;2023-05-03T07:01:15;101561.53;;;8.25;57.92
46223;BME280;31943;51.410;7.564;2023-05-03T07:03:41;101552.53;;;8.40;57.30
46223;BME280;31943;51.410;7.564;2023-05-03T07:06:07;101551.81;;;8.42;57.05
46223;BME280;31943;51.410;7.564;2023-05-03T07:08:35;101537.03;;;8.41;56.94
46223;BME280;31943;51.410;7.564;2023-05-03T07:11:01;101543.66;;;8.56;57.09
46223;BME280;31943;51.410;7.564;2023-05-03T07:13:27;101551.22;;;8.72;56.93
46223;BME280;31943;51.410;7.564;2023-05-03T07:15:52;101543.91;;;8.84;56.63
46223;BME280;31943;51.410;7.564;2023-05-03T07:18:18;101542.81;;;9.02;56.52
46223;BME280;31943;51.410;7.564;2023-05-03T07:20:44;101542.59;;;9.20;56.07
46223;BME280;31943;51.410;7.564;2023-05-03T07:23:09;101548.38;;;9.35;55.93
46223;BME280;31943;51.410;7.564;2023-05-03T07:25:37;101537.88;;;9.34;55.94
46223;BME280;31943;51.410;7.564;2023-05-03T07:28:02;101536.66;;;9.48;56.04
46223;BME280;31943;51.410;7.564;2023-05-03T07:30:28;101539.19;;;9.70;55.88
46223;BME280;31943;51.410;7.564;2023-05-03T07:32:54;101534.03;;;9.99;55.25
46223;BME280;31943;51.410;7.564;2023-05-03T07:35:20;101526.09;;;10.22;54.71
46223;BME280;31943;51.410;7.564;2023-05-03T07:37:46;101519.66;;;10.38;54.42
46223;BME280;31943;51.410;7.564;2023-05-03T07:40:12;101518.34;;;10.52;54.09
46223;BME280;31943;51.410;7.564;2023-05-03T07:42:40;101519.69;;;10.68;53.38
46223;BME280;31943;51.410;7.564;2023-05-03T07:45:07;101510.94;;;10.66;53.19
46223;BME280;31943;51.410;7.564;2023-05-03T07:47:33;101514.63;;;10.73;53.70
46223;BME280;31943;51.410;7.564;2023-05-03T07:50:00;101505.50;;;10.88;52.62
46223;BME280;31943;51.410;7.564;2023-05-03T07:52:26;101511.13;;;11.02;52.41
46223;BME280;31943;51.410;7.564;2023-05-03T07:54:52;101516.84;;;11.19;51.76
46223;BME280;31943;51.410;7.564;2023-05-03T07:57:17;101505.75;;;11.28;51.85
46223;BME280;31943;51.410;7.564;2023-05-03T07:59:45;101503.44;;;11.40;50.28
46223;BME280;31943;51.410;7.564;2023-05-03T08:02:10;101504.72;;;11.56;49.77
46223;BME280;31943;51.410;7.564;2023-05-03T08:04:37;101505.09;;;11.70;48.71
46223;BME280;31943;51.410;7.564;2023-05-03T08:07:04;101508.09;;;11.84;48.88
46223;BME280;31943;51.410;7.564;2023-05-03T08:09:29;101500.75;;;12.04;48.88
46223;BME280;31943;51.410;7.564;2023-05-03T08:11:56;101501.16;;;11.86;48.07
46223;BME280;31943;51.410;7.564;2023-05-03T08:14:23;101502.47;;;11.68;48.71
46223;BME280;31943;51.410;7.564;2023-05-03T08:16:50;101501.16;;;11.86;47.90
46223;BME280;31943;51.410;7.564;2023-05-03T08:19:16;101501.75;;;11.76;48.51
46223;BME280;31943;51.410;7.564;2023-05-03T08:21:42;101503.09;;;11.93;47.93
46223;BME280;31943;51.410;7.564;2023-05-03T08:24:08;101495.78;;;12.16;46.66
46223;BME280;31943;51.410;7.564;2023-05-03T08:26:34;101496.75;;;12.20;45.80
46223;BME280;31943;51.410;7.564;2023-05-03T08:29:00;101492.78;;;12.37;46.14
46223;BME280;31943;51.410;7.564;2023-05-03T08:31:25;101490.56;;;12.56;46.14
46223;BME280;31943;51.410;7.564;2023-05-03T08:33:53;101485.91;;;12.41;45.53
46223;BME280;31943;51.410;7.564;2023-05-03T08:36:19;101491.34;;;12.12;46.37
46223;BME280;31943;51.410;7.564;2023-05-03T08:38:46;101478.06;;;12.42;46.28
46223;BME280;31943;51.410;7.564;2023-05-03T08:41:18;101481.25;;;12.69;46.04
46223;BME280;31943;51.410;7.564;2023-05-03T08:43:51;101475.50;;;12.86;44.61
46223;BME280;31943;51.410;7.564;2023-05-03T08:46:17;101470.50;;;12.99;44.69
46223;BME280;31943;51.410;7.564;2023-05-03T08:48:44;101476.81;;;13.09;44.67
46223;BME280;31943;51.410;7.564;2023-05-03T08:51:15;101475.28;;;12.76;45.36
46223;BME280;31943;51.410;7.564;2023-05-03T08:53:41;101486.53;;;12.70;46.52
46223;BME280;31943;51.410;7.564;2023-05-03T08:56:08;101483.56;;;12.96;45.43
46223;BME280;31943;51.410;7.564;2023-05-03T08:58:34;101489.88;;;13.05;44.36
46223;BME280;31943;51.410;7.564;2023-05-03T09:01:06;101494.41;;;13.14;43.77
46223;BME280;31943;51.410;7.564;2023-05-03T09:03:35;101492.00;;;13.26;43.95
46223;BME280;31943;51.410;7.564;2023-05-03T09:06:01;101494.28;;;13.54;44.15
46223;BME280;31943;51.410;7.564;2023-05-03T09:08:29;101492.91;;;13.76;43.46
46223;BME280;31943;51.410;7.564;2023-05-03T09:10:56;101493.41;;;14.07;43.60
46223;BME280;31943;51.410;7.564;2023-05-03T09:13:30;101491.78;;;14.13;42.08
46223;BME280;31943;51.410;7.564;2023-05-03T09:15:59;101490.94;;;14.16;41.66
46223;BME280;31943;51.410;7.564;2023-05-03T09:18:24;101481.38;;;14.21;41.59
46223;BME280;31943;51.410;7.564;2023-05-03T09:20:50;101485.38;;;13.97;41.24
46223;BME280;31943;51.410;7.564;2023-05-03T09:23:16;101484.25;;;13.80;41.85
46223;BME280;31943;51.410;7.564;2023-05-03T09:25:45;101477.13;;;13.73;41.92
46223;BME280;31943;51.410;7.564;2023-05-03T09:28:12;101472.56;;;13.61;42.23
46223;BME280;31943;51.410;7.564;2023-05-03T09:30:38;101477.19;;;13.77;42.75
46223;BME280;31943;51.410;7.564;2023-05-03T09:33:04;101471.47;;;14.00;42.60
46223;BME280;31943;51.410;7.564;2023-05-03T09:35:30;101483.22;;;14.25;42.05
46223;BME280;31943;51.410;7.564;2023-05-03T09:37:57;101474.50;;;14.31;42.10
46223;BME280;31943;51.410;7.564;2023-05-03T09:40:23;101481.47;;;14.29;42.07
46223;BME280;31943;51.410;7.564;2023-05-03T09:43:07;101476.31;;;14.33;41.26
46223;BME280;31943;51.410;7.564;2023-05-03T09:45:34;101466.81;;;14.41;41.89
46223;BME280;31943;51.410;7.564;2023-05-03T09:48:01;101461.56;;;14.41;41.73
46223;BME280;31943;51.410;7.564;2023-05-03T09:50:27;101455.22;;;14.27;41.23
46223;BME280;31943;51.410;7.564;2023-05-03T09:52:54;101456.91;;;14.22;42.47
46223;BME280;31943;51.410;7.564;2023-05-03T09:55:21;101458.88;;;14.38;42.50
46223;BME280;31943;51.410;7.564;2023-05-03T09:57:46;101455.59;;;14.55;42.14
46223;BME280;31943;51.410;7.564;2023-05-03T10:00:16;101446.13;;;14.66;41.35
46223;BME280;31943;51.410;7.564;2023-05-03T10:02:43;101454.09;;;14.72;41.21
46223;BME280;31943;51.410;7.564;2023-05-03T10:05:10;101456.88;;;14.88;40.68
46223;BME280;31943;51.410;7.564;2023-05-03T10:07:38;101461.38;;;14.95;41.29
46223;BME280;31943;51.410;7.564;2023-05-03T10:10:06;101456.19;;;14.99;41.98
46223;BME280;31943;51.410;7.564;2023-05-03T10:12:32;101453.53;;;15.01;40.83
46223;BME280;31943;51.410;7.564;2023-05-03T10:15:00;101454.56;;;15.14;40.99
46223;BME280;31943;51.410;7.564;2023-05-03T10:17:34;101445.94;;;15.29;40.33
46223;BME280;31943;51.410;7.564;2023-05-03T10:20:11;101440.69;;;15.27;39.93
46223;BME280;31943;51.410;7.564;2023-05-03T10:23:08;101448.56;;;15.26;39.48
46223;BME280;31943;51.410;7.564;2023-05-03T10:25:35;101437.78;;;15.01;39.87
46223;BME280;31943;51.410;7.564;2023-05-03T10:28:02;101444.00;;;15.09;40.08
46223;BME280;31943;51.410;7.564;2023-05-03T10:30:29;101438.88;;;15.25;39.48
46223;BME280;31943;51.410;7.564;2023-05-03T10:32:57;101420.31;;;15.06;39.64
46223;BME280;31943;51.410;7.564;2023-05-03T10:35:26;101413.31;;;15.08;39.89
46223;BME280;31943;51.410;7.564;2023-05-03T10:37:52;101415.88;;;15.00;39.91
46223;BME280;31943;51.410;7.564;2023-05-03T10:40:18;101418.56;;;15.07;40.21
46223;BME280;31943;51.410;7.564;2023-05-03T10:42:49;101409.88;;;15.17;39.62
46223;BME280;31943;51.410;7.564;2023-05-03T10:45:23;101410.78;;;15.17;39.93
46223;BME280;31943;51.410;7.564;2023-05-03T10:48:25;101409.16;;;15.30;39.92
46223;BME280;31943;51.410;7.564;2023-05-03T10:50:51;101405.72;;;15.39;39.74
46223;BME280;31943;51.410;7.564;2023-05-03T10:53:36;101405.00;;;15.60;40.18
46223;BME280;31943;51.410;7.564;2023-05-03T10:56:03;101399.94;;;15.78;39.64
46223;BME280;31943;51.410;7.564;2023-05-03T10:58:31;101413.22;;;15.98;38.88
46223;BME280;31943;51.410;7.564;2023-05-03T11:00:59;101407.00;;;15.87;39.52
46223;BME280;31943;51.410;7.564;2023-05-03T11:03:44;101407.84;;;15.81;39.34
46223;BME280;31943;51.410;7.564;2023-05-03T11:06:29;101392.88;;;15.73;39.12
46223;BME280;31943;51.410;7.564;2023-05-03T11:08:55;101385.88;;;15.75;39.99
46223;BME280;31943;51.410;7.564;2023-05-03T11:11:21;101388.53;;;15.78;39.37
46223;BME280;31943;51.410;7.564;2023-05-03T11:13:46;101378.72;;;15.61;39.17
46223;BME280;31943;51.410;7.564;2023-05-03T11:16:14;101372.59;;;15.66;39.84
46223;BME280;31943;51.410;7.564;2023-05-03T11:18:40;101380.47;;;15.64;39.79
46223;BME280;31943;51.410;7.564;2023-05-03T11:21:07;101385.00;;;15.76;39.82
46223;BME280;31943;51.410;7.564;2023-05-03T11:23:37;101379.88;;;15.96;40.14
46223;BME280;31943;51.410;7.564;2023-05-03T11:26:05;101383.50;;;16.18;39.64
46223;BME280;31943;51.410;7.564;2023-05-03T11:28:31;101375.53;;;16.09;39.15
46223;BME280;31943;51.410;7.564;2023-05-03T11:30:56;101375.63;;;16.21;39.47
46223;BME280;31943;51.410;7.564;2023-05-03T11:33:22;101387.81;;;16.04;38.64
46223;BME280;31943;51.410;7.564;2023-05-03T11:35:48;101379.84;;;15.90;39.08
46223;BME280;31943;51.410;7.564;2023-05-03T11:38:15;101369.31;;;15.90;39.13
46223;BME280;31943;51.410;7.564;2023-05-03T11:40:41;101372.88;;;16.02;39.09
46223;BME280;31943;51.410;7.564;2023-05-03T11:43:07;101364.16;;;16.10;39.32
46223;BME280;31943;51.410;7.564;2023-05-03T11:45:38;101359.00;;;16.33;40.18
46223;BME280;31943;51.410;7.564;2023-05-03T11:48:05;101359.09;;;16.67;39.33
46223;BME280;31943;51.410;7.564;2023-05-03T11:50:45;101346.81;;;16.69;38.60
46223;BME280;31943;51.410;7.564;2023-05-03T11:53:12;101352.97;;;16.77;37.90
46223;BME280;31943;51.410;7.564;2023-05-03T11:55:40;101356.53;;;16.87;37.47
46223;BME280;31943;51.410;7.564;2023-05-03T11:58:07;101355.69;;;17.06;37.98
46223;BME280;31943;51.410;7.564;2023-05-03T12:00:35;101359.19;;;17.08;37.66
46223;BME280;31943;51.410;7.564;2023-05-03T12:03:01;101360.06;;;17.10;37.75
46223;BME280;31943;51.410;7.564;2023-05-03T12:05:26;101349.50;;;16.96;37.29
46223;BME280;31943;51.410;7.564;2023-05-03T12:07:52;101366.13;;;16.77;37.03
46223;BME280;31943;51.410;7.564;2023-05-03T12:10:18;101359.06;;;16.64;37.23
46223;BME280;31943;51.410;7.564;2023-05-03T12:12:56;101366.09;;;16.58;37.31
46223;BME280;31943;51.410;7.564;2023-05-03T12:15:29;101360.84;;;16.74;38.06
46223;BME280;31943;51.410;7.564;2023-05-03T12:17:56;101360.88;;;16.72;37.52
46223;BME280;31943;51.410;7.564;2023-05-03T12:20:23;101359.97;;;16.73;37.23
46223;BME280;31943;51.410;7.564;2023-05-03T12:22:50;101359.09;;;16.68;38.28
46223;BME280;31943;51.410;7.564;2023-05-03T12:25:16;101349.41;;;16.56;38.27
46223;BME280;31943;51.410;7.564;2023-05-03T12:27:41;101345.91;;;16.67;38.39
46223;BME280;31943;51.410;7.564;2023-05-03T12:30:10;101349.44;;;16.73;37.74
46223;BME280;31943;51.410;7.564;2023-05-03T12:32:36;101336.25;;;16.67;37.84
46223;BME280;31943;51.410;7.564;2023-05-03T12:35:02;101341.53;;;16.79;38.64
46223;BME280;31943;51.410;7.564;2023-05-03T12:37:27;101334.53;;;16.82;37.92
46223;BME280;31943;51.410;7.564;2023-05-03T12:39:53;101336.25;;;16.79;37.88
46223;BME280;31943;51.410;7.564;2023-05-03T12:42:19;101333.63;;;16.73;37.98
46223;BME280;31943;51.410;7.564;2023-05-03T12:44:45;101331.06;;;16.86;38.21
46223;BME280;31943;51.410;7.564;2023-05-03T12:47:12;101331.06;;;17.16;38.71
46223;BME280;31943;51.410;7.564;2023-05-03T12:49:37;101322.25;;;17.36;36.26
46223;BME280;31943;51.410;7.564;2023-05-03T12:52:03;101331.94;;;17.52;37.08
46223;BME280;31943;51.410;7.564;2023-05-03T12:54:29;101328.44;;;17.35;35.87